Time,TemperatureF,DewpointF,PressureIn,WindDirection,WindDirectionDegrees,WindSpeedMPH,WindSpeedGustMPH,Humidity,HourlyPrecipIn,Conditions,Clouds,dailyrainin,SolarRadiationWatts/m^2,SoftwareType,DateUTC
2013-04-28 00:03:00,70.0,64.0,-100.00,East,87,5.0,-999.0,83,0.00,,,-99.99,0.000000,,2013-04-28 04:03:00,
2013-04-28 00:13:00,69.0,64.0,-100.00,East,92,4.0,-999.0,84,0.00,,,-99.99,0.000000,,2013-04-28 04:13:00,
2013-04-28 00:23:00,69.0,64.0,-100.00,East,92,4.0,-999.0,84,0.00,,,-99.99,0.000000,,2013-04-28 04:23:00,
2013-04-28 00:32:00,68.0,64.0,-100.00,East,92,4.0,-999.0,85,0.00,,,-99.99,0.000000,,2013-04-28 04:32:00,
2013-04-28 00:43:00,67.0,63.0,-100.00,East,82,3.0,-999.0,87,0.00,,,-99.99,0.000000,,2013-04-28 04:43:00,
2013-04-28 00:53:00,67.0,63.0,-100.00,East,82,3.0,-999.0,87,0.00,,,-99.99,0.000000,,2013-04-28 04:53:00,
2013-04-28 01:02:00,67.0,63.0,-100.00,ENE,73,4.0,-999.0,88,0.00,,,-99.99,0.000000,,2013-04-28 05:02:00,
2013-04-28 01:12:00,67.0,63.0,-100.00,ENE,59,5.0,-999.0,88,0.00,,,-99.99,0.000000,,2013-04-28 05:12:00,
2013-04-28 01:22:00,67.0,63.0,-100.00,ENE,59,5.0,-999.0,88,0.00,,,-99.99,0.000000,,2013-04-28 05:22:00,
2013-04-28 01:32:00,67.0,63.0,-100.00,ENE,75,4.0,-999.0,88,0.00,,,-99.99,0.000000,,2013-04-28 05:32:00,
2013-04-28 01:42:00,66.0,63.0,-100.00,East,79,3.0,-999.0,88,0.00,,,-99.99,0.000000,,2013-04-28 05:42:00,
2013-04-28 01:52:00,66.0,63.0,-100.00,East,79,3.0,-999.0,88,0.00,,,-99.99,0.000000,,2013-04-28 05:52:00,
2013-04-28 02:01:00,66.0,63.0,-100.00,East,95,2.0,-999.0,89,0.00,,,-99.99,0.000000,,2013-04-28 06:01:00,
2013-04-28 02:12:00,66.0,63.0,-100.00,SE,125,4.0,-999.0,90,0.00,,,-99.99,0.000000,,2013-04-28 06:12:00,
2013-04-28 02:21:00,66.0,63.0,-100.00,SE,125,4.0,-999.0,90,0.00,,,-99.99,0.000000,,2013-04-28 06:21:00,
2013-04-28 02:32:00,66.0,63.0,-100.00,ESE,104,3.0,-999.0,90,0.00,,,-99.99,0.000000,,2013-04-28 06:32:00,
2013-04-28 02:42:00,65.0,62.0,-100.00,East,89,2.0,-999.0,90,0.00,,,-99.99,0.000000,,2013-04-28 06:42:00,
2013-04-28 02:52:00,65.0,62.0,-100.00,East,89,2.0,-999.0,90,0.00,,,-99.99,0.000000,,2013-04-28 06:52:00,
2013-04-28 03:01:00,64.0,62.0,-100.00,ENE,76,2.0,-999.0,91,0.00,,,-99.99,0.000000,,2013-04-28 07:01:00,
2013-04-28 03:11:00,64.0,62.0,-100.00,ENE,76,2.0,-999.0,91,0.00,,,-99.99,0.000000,,2013-04-28 07:11:00,
2013-04-28 03:21:00,64.0,62.0,-100.00,NE,40,3.0,-999.0,92,0.00,,,-99.99,0.000000,,2013-04-28 07:21:00,
2013-04-28 03:32:00,64.0,62.0,-100.00,NE,44,2.0,-999.0,93,0.00,,,-99.99,0.000000,,2013-04-28 07:32:00,
2013-04-28 03:42:00,63.0,61.0,-100.00,East,98,2.0,-999.0,93,0.00,,,-99.99,0.000000,,2013-04-28 07:42:00,
2013-04-28 03:52:00,63.0,61.0,-100.00,East,98,2.0,-999.0,93,0.00,,,-99.99,0.000000,,2013-04-28 07:52:00,
2013-04-28 04:02:00,63.0,61.0,-100.00,ESE,119,3.0,-999.0,94,0.00,,,-99.99,0.000000,,2013-04-28 08:02:00,
2013-04-28 04:12:00,64.0,62.0,-100.00,East,97,3.0,-999.0,93,0.00,,,-99.99,0.000000,,2013-04-28 08:12:00,
2013-04-28 04:21:00,64.0,62.0,-100.00,East,97,3.0,-999.0,93,0.00,,,-99.99,0.000000,,2013-04-28 08:21:00,
2013-04-28 04:32:00,64.0,62.0,-100.00,ESE,105,3.0,-999.0,93,0.00,,,-99.99,0.000000,,2013-04-28 08:32:00,
2013-04-28 04:42:00,64.0,62.0,-100.00,ESE,114,3.0,-999.0,93,0.00,,,-99.99,0.000000,,2013-04-28 08:42:00,
2013-04-28 04:52:00,64.0,62.0,-100.00,ESE,114,3.0,-999.0,93,0.00,,,-99.99,0.000000,,2013-04-28 08:52:00,
2013-04-28 05:01:00,63.0,61.0,-100.00,SE,137,2.0,-999.0,92,0.00,,,-99.99,0.000000,,2013-04-28 09:01:00,
2013-04-28 05:12:00,64.0,62.0,-100.00,SE,125,4.0,-999.0,93,0.00,,,-99.99,0.000000,,2013-04-28 09:12:00,
2013-04-28 05:21:00,64.0,62.0,-100.00,SE,125,4.0,-999.0,93,0.00,,,-99.99,0.000000,,2013-04-28 09:21:00,
2013-04-28 05:33:00,64.0,62.0,-100.00,ESE,116,4.0,-999.0,92,0.00,,,-99.99,0.000000,,2013-04-28 09:33:00,
2013-04-28 05:42:00,64.0,62.0,-100.00,ESE,110,3.0,-999.0,92,0.00,,,-99.99,0.000000,,2013-04-28 09:42:00,
2013-04-28 05:53:00,64.0,62.0,-100.00,ESE,110,3.0,-999.0,92,0.00,,,-99.99,0.000000,,2013-04-28 09:53:00,
2013-04-28 06:03:00,64.0,62.0,-100.00,ESE,114,3.0,-999.0,92,0.00,,,-99.99,0.000000,,2013-04-28 10:03:00,
2013-04-28 06:12:00,63.0,61.0,-100.00,SE,137,3.0,-999.0,92,0.00,,,-99.99,0.000000,,2013-04-28 10:12:00,
2013-04-28 06:22:00,63.0,61.0,-100.00,SE,137,3.0,-999.0,92,0.00,,,-99.99,0.000000,,2013-04-28 10:22:00,
2013-04-28 06:32:00,63.0,61.0,-100.00,ESE,122,3.0,-999.0,93,0.00,,,-99.99,0.000000,,2013-04-28 10:32:00,
2013-04-28 06:42:00,63.0,61.0,-100.00,SE,132,4.0,-999.0,93,0.00,,,-99.99,0.000000,,2013-04-28 10:42:00,
2013-04-28 06:53:00,63.0,61.0,-100.00,SE,132,4.0,-999.0,93,0.00,,,-99.99,0.000000,,2013-04-28 10:53:00,
2013-04-28 07:02:00,64.0,61.0,-100.00,SE,140,4.0,-999.0,92,0.00,,,-99.99,1.100000,,2013-04-28 11:02:00,
2013-04-28 07:11:00,64.0,62.0,-100.00,SE,142,3.0,-999.0,91,0.00,,,-99.99,8.500000,,2013-04-28 11:11:00,
2013-04-28 07:22:00,64.0,62.0,-100.00,SE,142,3.0,-999.0,91,0.00,,,-99.99,8.500000,,2013-04-28 11:22:00,
2013-04-28 07:32:00,65.0,63.0,-100.00,SE,135,4.0,-999.0,91,0.00,,,-99.99,25.700001,,2013-04-28 11:32:00,
2013-04-28 07:42:00,67.0,63.0,-100.00,SE,142,4.0,-999.0,90,0.00,,,-99.99,57.599998,,2013-04-28 11:42:00,
2013-04-28 07:52:00,67.0,63.0,-100.00,SE,142,4.0,-999.0,90,0.00,,,-99.99,57.599998,,2013-04-28 11:52:00,
2013-04-28 08:02:00,68.0,64.0,-100.00,SSE,157,5.0,-999.0,87,0.00,,,-99.99,141.100006,,2013-04-28 12:02:00,
2013-04-28 08:12:00,69.0,64.0,-100.00,SSE,151,6.0,-999.0,84,0.00,,,-99.99,189.000000,,2013-04-28 12:12:00,
2013-04-28 08:21:00,69.0,64.0,-100.00,SSE,151,6.0,-999.0,84,0.00,,,-99.99,189.000000,,2013-04-28 12:21:00,
2013-04-28 08:32:00,70.0,64.0,-100.00,SE,141,7.0,-999.0,82,0.00,,,-99.99,224.600006,,2013-04-28 12:32:00,
2013-04-28 08:42:00,71.0,64.0,-100.00,SSE,149,8.0,-999.0,80,0.00,,,-99.99,265.700012,,2013-04-28 12:42:00,
2013-04-28 08:52:00,71.0,64.0,-100.00,SSE,149,8.0,-999.0,80,0.00,,,-99.99,265.700012,,2013-04-28 12:52:00,
2013-04-28 09:02:00,71.0,64.0,-100.00,SE,134,8.0,-999.0,78,0.00,,,-99.99,313.600006,,2013-04-28 13:02:00,
2013-04-28 09:11:00,73.0,64.0,-100.00,SE,144,9.0,-999.0,74,0.00,,,-99.99,364.500000,,2013-04-28 13:11:00,
2013-04-28 09:21:00,73.0,64.0,-100.00,SE,144,9.0,-999.0,74,0.00,,,-99.99,364.500000,,2013-04-28 13:21:00,
2013-04-28 09:32:00,74.0,64.0,-100.00,SE,139,9.0,-999.0,70,0.00,,,-99.99,428.700012,,2013-04-28 13:32:00,
2013-04-28 09:42:00,74.0,64.0,-100.00,SE,139,9.0,-999.0,70,0.00,,,-99.99,428.700012,,2013-04-28 13:42:00,
2013-04-28 09:52:00,75.0,64.0,-100.00,SE,136,9.0,-999.0,67,0.00,,,-99.99,480.899994,,2013-04-28 13:52:00,
2013-04-28 10:02:00,76.0,63.0,-100.00,SE,135,9.0,-999.0,65,0.00,,,-99.99,530.599976,,2013-04-28 14:02:00,
2013-04-28 10:11:00,76.0,63.0,-100.00,SE,128,10.0,-999.0,63,0.00,,,-99.99,584.599976,,2013-04-28 14:11:00,
2013-04-28 10:22:00,76.0,63.0,-100.00,SE,128,10.0,-999.0,63,0.00,,,-99.99,584.599976,,2013-04-28 14:22:00,
2013-04-28 10:32:00,76.0,63.0,-100.00,ESE,119,13.0,-999.0,62,0.00,,,-99.99,601.099976,,2013-04-28 14:32:00,
2013-04-28 10:42:00,77.0,62.0,-100.00,SE,129,12.0,-999.0,59,0.00,,,-99.99,687.400024,,2013-04-28 14:42:00,
2013-04-28 10:52:00,77.0,62.0,-100.00,SE,129,12.0,-999.0,59,0.00,,,-99.99,687.400024,,2013-04-28 14:52:00,
2013-04-28 11:02:00,78.0,62.0,-100.00,SE,128,12.0,-999.0,58,0.00,,,-99.99,720.000000,,2013-04-28 15:02:00,
2013-04-28 11:12:00,79.0,62.0,-100.00,SE,139,10.0,-999.0,57,0.00,,,-99.99,722.000000,,2013-04-28 15:12:00,
2013-04-28 11:21:00,79.0,62.0,-100.00,SE,139,10.0,-999.0,57,0.00,,,-99.99,722.000000,,2013-04-28 15:21:00,
2013-04-28 11:32:00,79.0,62.0,-100.00,SE,138,10.0,-999.0,56,0.00,,,-99.99,726.000000,,2013-04-28 15:32:00,
2013-04-28 11:42:00,79.0,61.0,-100.00,SE,141,11.0,-999.0,53,0.00,,,-99.99,826.000000,,2013-04-28 15:42:00,
2013-04-28 11:53:00,79.0,61.0,-100.00,SE,141,11.0,-999.0,53,0.00,,,-99.99,826.000000,,2013-04-28 15:53:00,
2013-04-28 12:03:00,80.0,61.0,-100.00,SE,143,11.0,-999.0,52,0.00,,,-99.99,875.000000,,2013-04-28 16:03:00,
2013-04-28 12:13:00,81.0,61.0,-100.00,SE,128,9.0,-999.0,50,0.00,,,-99.99,822.000000,,2013-04-28 16:13:00,
2013-04-28 12:23:00,81.0,61.0,-100.00,SE,128,9.0,-999.0,50,0.00,,,-99.99,822.000000,,2013-04-28 16:23:00,
2013-04-28 12:33:00,81.0,61.0,-100.00,SE,135,11.0,-999.0,50,0.00,,,-99.99,904.000000,,2013-04-28 16:33:00,
2013-04-28 12:43:00,82.0,60.0,-100.00,SE,137,11.0,-999.0,47,0.00,,,-99.99,964.000000,,2013-04-28 16:43:00,
2013-04-28 12:52:00,82.0,60.0,-100.00,SE,137,11.0,-999.0,47,0.00,,,-99.99,964.000000,,2013-04-28 16:52:00,
2013-04-28 13:02:00,82.0,60.0,-100.00,SE,140,11.0,-999.0,47,0.00,,,-99.99,800.000000,,2013-04-28 17:02:00,
2013-04-28 13:12:00,82.0,59.0,-100.00,SE,128,11.0,-999.0,46,0.00,,,-99.99,988.000000,,2013-04-28 17:12:00,
2013-04-28 13:22:00,82.0,59.0,-100.00,SE,128,11.0,-999.0,46,0.00,,,-99.99,988.000000,,2013-04-28 17:22:00,
2013-04-28 13:32:00,83.0,60.0,-100.00,SE,125,11.0,-999.0,45,0.00,,,-99.99,955.000000,,2013-04-28 17:32:00,
2013-04-28 13:42:00,83.0,59.0,-100.00,SE,132,11.0,-999.0,43,0.00,,,-99.99,970.000000,,2013-04-28 17:42:00,
2013-04-28 13:52:00,83.0,59.0,-100.00,SE,132,11.0,-999.0,43,0.00,,,-99.99,970.000000,,2013-04-28 17:52:00,
2013-04-28 14:02:00,84.0,58.0,-100.00,SE,141,12.0,-999.0,42,0.00,,,-99.99,952.000000,,2013-04-28 18:02:00,
2013-04-28 14:12:00,84.0,57.0,-100.00,SE,127,11.0,-999.0,40,0.00,,,-99.99,929.000000,,2013-04-28 18:12:00,
2013-04-28 14:22:00,84.0,57.0,-100.00,SE,127,11.0,-999.0,40,0.00,,,-99.99,929.000000,,2013-04-28 18:22:00,
2013-04-28 14:32:00,84.0,57.0,-100.00,SE,125,13.0,-999.0,40,0.00,,,-99.99,916.000000,,2013-04-28 18:32:00,
2013-04-28 14:42:00,85.0,57.0,-100.00,SE,137,12.0,-999.0,39,0.00,,,-99.99,878.000000,,2013-04-28 18:42:00,
2013-04-28 14:52:00,85.0,57.0,-100.00,SE,137,12.0,-999.0,39,0.00,,,-99.99,878.000000,,2013-04-28 18:52:00,
2013-04-28 15:02:00,84.0,57.0,-100.00,SE,125,13.0,-999.0,39,0.00,,,-99.99,894.000000,,2013-04-28 19:02:00,
2013-04-28 15:11:00,85.0,58.0,-100.00,ESE,123,13.0,-999.0,39,0.00,,,-99.99,870.000000,,2013-04-28 19:11:00,
2013-04-28 15:22:00,85.0,58.0,-100.00,ESE,123,13.0,-999.0,39,0.00,,,-99.99,870.000000,,2013-04-28 19:22:00,
2013-04-28 15:32:00,85.0,58.0,-100.00,SE,135,11.0,-999.0,39,0.00,,,-99.99,858.000000,,2013-04-28 19:32:00,
2013-04-28 15:42:00,85.0,57.0,-100.00,SE,129,10.0,-999.0,38,0.00,,,-99.99,847.000000,,2013-04-28 19:42:00,
2013-04-28 15:52:00,85.0,57.0,-100.00,SE,129,10.0,-999.0,38,0.00,,,-99.99,847.000000,,2013-04-28 19:52:00,
2013-04-28 16:02:00,85.0,57.0,-100.00,SE,130,11.0,-999.0,39,0.00,,,-99.99,694.799988,,2013-04-28 20:02:00,
2013-04-28 16:12:00,84.0,58.0,-100.00,SE,125,13.0,-999.0,40,0.00,,,-99.99,572.500000,,2013-04-28 20:12:00,
2013-04-28 16:22:00,84.0,58.0,-100.00,SE,125,13.0,-999.0,40,0.00,,,-99.99,572.500000,,2013-04-28 20:22:00,
2013-04-28 16:32:00,85.0,58.0,-100.00,ESE,122,12.0,-999.0,40,0.00,,,-99.99,710.000000,,2013-04-28 20:32:00,
2013-04-28 16:42:00,84.0,59.0,-100.00,SE,130,12.0,-999.0,41,0.00,,,-99.99,539.599976,,2013-04-28 20:42:00,
2013-04-28 16:52:00,84.0,59.0,-100.00,SE,130,12.0,-999.0,41,0.00,,,-99.99,539.599976,,2013-04-28 20:52:00,
2013-04-28 17:01:00,85.0,59.0,-100.00,ESE,121,12.0,-999.0,41,0.00,,,-99.99,645.200012,,2013-04-28 21:01:00,
2013-04-28 17:11:00,85.0,59.0,-100.00,SE,124,12.0,-999.0,41,0.00,,,-99.99,515.000000,,2013-04-28 21:11:00,
2013-04-28 17:22:00,85.0,59.0,-100.00,SE,124,12.0,-999.0,41,0.00,,,-99.99,515.000000,,2013-04-28 21:22:00,
2013-04-28 17:33:00,85.0,59.0,-100.00,SE,124,13.0,-999.0,42,0.00,,,-99.99,570.099976,,2013-04-28 21:33:00,
2013-04-28 17:42:00,83.0,60.0,-100.00,ESE,110,11.0,-999.0,45,0.00,,,-99.99,270.000000,,2013-04-28 21:42:00,
2013-04-28 17:53:00,83.0,60.0,-100.00,ESE,110,11.0,-999.0,45,0.00,,,-99.99,270.000000,,2013-04-28 21:53:00,
2013-04-28 18:03:00,82.0,60.0,-100.00,ESE,121,11.0,-999.0,47,0.00,,,-99.99,180.100006,,2013-04-28 22:03:00,
2013-04-28 18:13:00,82.0,60.0,-100.00,ESE,116,12.0,-999.0,47,0.00,,,-99.99,262.200012,,2013-04-28 22:13:00,
2013-04-28 18:23:00,82.0,60.0,-100.00,ESE,116,12.0,-999.0,47,0.00,,,-99.99,262.200012,,2013-04-28 22:23:00,
2013-04-28 18:33:00,82.0,60.0,-100.00,ESE,115,12.0,-999.0,47,0.00,,,-99.99,285.000000,,2013-04-28 22:33:00,
2013-04-28 18:42:00,81.0,60.0,-100.00,ESE,119,11.0,-999.0,48,0.00,,,-99.99,115.199997,,2013-04-28 22:42:00,
2013-04-28 18:52:00,81.0,60.0,-100.00,ESE,119,11.0,-999.0,48,0.00,,,-99.99,115.199997,,2013-04-28 22:52:00,
2013-04-28 19:02:00,81.0,60.0,-100.00,ESE,121,11.0,-999.0,49,0.00,,,-99.99,97.500000,,2013-04-28 23:02:00,
2013-04-28 19:12:00,80.0,60.0,-100.00,SE,126,10.0,-999.0,50,0.00,,,-99.99,65.199997,,2013-04-28 23:12:00,
2013-04-28 19:22:00,80.0,60.0,-100.00,SE,126,10.0,-999.0,50,0.00,,,-99.99,65.199997,,2013-04-28 23:22:00,
2013-04-28 19:32:00,80.0,60.0,-100.00,ESE,121,11.0,-999.0,51,0.00,,,-99.99,55.599998,,2013-04-28 23:32:00,
2013-04-28 19:42:00,79.0,61.0,-100.00,SE,132,10.0,-999.0,53,0.00,,,-99.99,30.100000,,2013-04-28 23:42:00,
2013-04-28 19:52:00,79.0,61.0,-100.00,SE,132,10.0,-999.0,53,0.00,,,-99.99,30.100000,,2013-04-28 23:52:00,
2013-04-28 20:01:00,78.0,61.0,-100.00,ESE,122,12.0,-999.0,54,0.00,,,-99.99,17.799999,,2013-04-29 00:01:00,
2013-04-28 20:11:00,77.0,60.0,-100.00,ESE,107,10.0,-999.0,56,0.00,,,-99.99,6.500000,,2013-04-29 00:11:00,
2013-04-28 20:22:00,77.0,60.0,-100.00,ESE,107,10.0,-999.0,56,0.00,,,-99.99,6.500000,,2013-04-29 00:22:00,
2013-04-28 20:32:00,76.0,61.0,-100.00,ESE,108,10.0,-999.0,58,0.00,,,-99.99,0.900000,,2013-04-29 00:32:00,
2013-04-28 20:42:00,76.0,61.0,-100.00,ESE,108,10.0,-999.0,58,0.00,,,-99.99,0.900000,,2013-04-29 00:42:00,
2013-04-28 20:52:00,75.0,61.0,-100.00,ESE,110,10.0,-999.0,60,0.00,,,-99.99,0.000000,,2013-04-29 00:52:00,
2013-04-28 21:01:00,75.0,61.0,-100.00,ESE,111,9.0,-999.0,62,0.00,,,-99.99,0.000000,,2013-04-29 01:01:00,
2013-04-28 21:12:00,74.0,61.0,-100.00,ESE,105,8.0,-999.0,64,0.00,,,-99.99,0.000000,,2013-04-29 01:12:00,
2013-04-28 21:22:00,74.0,61.0,-100.00,ESE,105,8.0,-999.0,64,0.00,,,-99.99,0.000000,,2013-04-29 01:22:00,
2013-04-28 21:32:00,73.0,61.0,-100.00,ESE,109,8.0,-999.0,65,0.00,,,-99.99,0.000000,,2013-04-29 01:32:00,
2013-04-28 21:42:00,73.0,61.0,-100.00,ESE,110,8.0,-999.0,65,0.00,,,-99.99,0.000000,,2013-04-29 01:42:00,
2013-04-28 21:52:00,73.0,61.0,-100.00,ESE,110,8.0,-999.0,65,0.00,,,-99.99,0.000000,,2013-04-29 01:52:00,
2013-04-28 22:02:00,72.0,61.0,-100.00,ESE,108,7.0,-999.0,67,0.00,,,-99.99,0.000000,,2013-04-29 02:02:00,
2013-04-28 22:11:00,72.0,61.0,-100.00,ESE,108,7.0,-999.0,67,0.00,,,-99.99,0.000000,,2013-04-29 02:11:00,
2013-04-28 22:22:00,71.0,61.0,-100.00,ESE,106,7.0,-999.0,68,0.00,,,-99.99,0.000000,,2013-04-29 02:22:00,
2013-04-28 22:32:00,71.0,61.0,-100.00,ESE,110,7.0,-999.0,70,0.00,,,-99.99,0.000000,,2013-04-29 02:32:00,
2013-04-28 22:42:00,71.0,61.0,-100.00,ESE,110,7.0,-999.0,70,0.00,,,-99.99,0.000000,,2013-04-29 02:42:00,
2013-04-28 22:52:00,71.0,61.0,-100.00,ESE,105,7.0,-999.0,72,0.00,,,-99.99,0.000000,,2013-04-29 02:52:00,
2013-04-28 23:01:00,70.0,61.0,-100.00,ESE,108,7.0,-999.0,73,0.00,,,-99.99,0.000000,,2013-04-29 03:01:00,
2013-04-28 23:12:00,70.0,62.0,-100.00,ESE,110,6.0,-999.0,75,0.00,,,-99.99,0.000000,,2013-04-29 03:12:00,
2013-04-28 23:22:00,70.0,62.0,-100.00,ESE,110,6.0,-999.0,75,0.00,,,-99.99,0.000000,,2013-04-29 03:22:00,
2013-04-28 23:33:00,70.0,62.0,-100.00,ESE,118,7.0,-999.0,76,0.00,,,-99.99,0.000000,,2013-04-29 03:33:00,
2013-04-28 23:42:00,70.0,62.0,-100.00,ESE,114,7.0,-999.0,76,0.00,,,-99.99,0.000000,,2013-04-29 03:42:00,
2013-04-28 23:53:00,70.0,62.0,-100.00,ESE,114,7.0,-999.0,76,0.00,,,-99.99,0.000000,,2013-04-29 03:53:00,